Terminal Aerodrome Forecast
Issued by NWS

Home | Current Version | Previous Version | Graphics & Text | Print | Product List | Glossary On
Versions: 1 2 3 4 5 6 7 8 9 10 11 12 13 14 15 16
156
FTUS43 KABR 240522
TAFPIR
TAF
KPIR 240522Z 2406/2506 33010KT P6SM SCT250
     FM241500 30014G21KT P6SM BKN250
     FM250200 32009KT P6SM SCT250=

USA.gov is the U.S. government's official web portal to all federal, state and local government web resources and services.